createdAt,value
2023-03-22T00:03:27.075Z,69.09
2023-03-22T00:07:27.243Z,68.64
2023-03-22T00:11:27.080Z,68.87
2023-03-22T00:15:28.619Z,68.81
2023-03-22T00:19:28.176Z,68.89
2023-03-22T00:23:28.229Z,69.17
2023-03-22T00:31:27.436Z,69.31
2023-03-22T00:35:27.250Z,69.24
2023-03-22T00:39:27.431Z,69.61
2023-03-22T00:43:27.172Z,69.74
2023-03-22T00:47:27.404Z,69.98
2023-03-22T00:51:27.167Z,70.08
2023-03-22T00:55:27.846Z,70.19
2023-03-22T00:59:27.444Z,70.39
2023-03-22T01:07:27.260Z,70.87
2023-03-22T01:11:27.306Z,71.16
2023-03-22T01:15:27.367Z,71.31
2023-03-22T01:19:27.302Z,71.45
2023-03-22T01:23:27.593Z,71.93
2023-03-22T01:27:27.441Z,71.79
2023-03-22T01:31:27.318Z,72.00
2023-03-22T01:35:27.363Z,71.97
2023-03-22T01:39:27.494Z,72.16
2023-03-22T01:43:27.442Z,72.36
2023-03-22T01:47:27.646Z,72.67
2023-03-22T01:51:28.129Z,72.72
2023-03-22T01:55:27.548Z,73.25
2023-03-22T01:59:28.481Z,73.12
2023-03-22T02:03:35.877Z,73.18
2023-03-22T02:07:27.667Z,73.57
2023-03-22T02:19:47.201Z,73.33
2023-03-22T02:23:47.248Z,73.65
2023-03-22T02:27:44.790Z,73.45
2023-03-22T02:31:47.230Z,74.31
2023-03-22T02:35:40.520Z,73.86
2023-03-22T02:39:31.764Z,74.00
2023-03-22T02:43:37.398Z,74.10
2023-03-22T02:47:37.523Z,74.03
2023-03-22T02:51:35.281Z,74.44
2023-03-22T02:59:30.653Z,74.46
2023-03-22T03:03:31.053Z,74.08
2023-03-22T03:11:27.879Z,74.20
2023-03-22T03:19:35.918Z,74.34
2023-03-22T03:23:36.749Z,74.52
2023-03-22T03:27:37.000Z,74.62
2023-03-22T03:31:33.918Z,74.53
2023-03-22T03:39:31.980Z,75.38
2023-03-22T03:43:27.787Z,75.33
2023-03-22T03:47:28.433Z,75.86
2023-03-22T03:51:27.739Z,75.71
2023-03-22T03:59:27.883Z,76.11
2023-03-22T04:03:27.832Z,76.23
2023-03-22T04:07:27.708Z,76.81
2023-03-22T04:11:27.773Z,76.64
2023-03-22T04:15:28.129Z,76.81
2023-03-22T04:19:27.813Z,77.16
2023-03-22T04:27:27.805Z,77.51
2023-03-22T04:31:28.754Z,77.97
2023-03-22T04:43:27.836Z,78.61
2023-03-22T04:47:27.839Z,78.17
2023-03-22T04:59:27.944Z,78.71
2023-03-22T05:03:27.883Z,78.36
2023-03-22T05:07:27.960Z,78.50
2023-03-22T05:11:27.986Z,78.94
2023-03-22T05:19:28.047Z,79.12
2023-03-22T05:23:28.166Z,78.78
2023-03-22T05:27:30.371Z,78.73
2023-03-22T05:31:27.973Z,79.14
2023-03-22T05:35:28.809Z,79.04
2023-03-22T05:39:28.013Z,79.37
2023-03-22T05:43:28.316Z,79.12
2023-03-22T05:47:28.008Z,79.50
2023-03-22T05:51:28.898Z,79.26
2023-03-22T05:59:28.127Z,79.25
2023-03-22T06:03:28.203Z,79.49
2023-03-22T06:07:28.261Z,79.09
2023-03-22T06:11:29.572Z,79.23
2023-03-22T06:15:28.102Z,79.44
2023-03-22T06:27:28.763Z,79.32
2023-03-22T06:31:28.167Z,79.36
2023-03-22T06:35:28.272Z,79.43
2023-03-22T06:39:28.167Z,79.15
2023-03-22T06:43:28.155Z,79.32
2023-03-22T06:47:28.220Z,79.39
2023-03-22T06:51:28.235Z,79.13
2023-03-22T06:55:32.195Z,79.39
2023-03-22T06:59:28.431Z,79.10
2023-03-22T07:03:28.248Z,79.46
2023-03-22T07:07:28.307Z,79.91
2023-03-22T07:11:28.218Z,79.27
2023-03-22T07:15:28.376Z,79.52
2023-03-22T07:19:28.428Z,79.52
2023-03-22T07:23:28.258Z,79.54
2023-03-22T07:27:28.258Z,80.05
2023-03-22T07:31:28.499Z,79.73
2023-03-22T07:35:28.565Z,79.77
2023-03-22T07:39:28.768Z,80.12
2023-03-22T07:43:28.549Z,79.79
2023-03-22T07:47:40.332Z,80.34
2023-03-22T07:51:29.121Z,79.83
2023-03-22T07:55:28.609Z,80.23
2023-03-22T07:59:28.469Z,79.88
2023-03-22T08:03:28.612Z,79.98
2023-03-22T08:07:29.387Z,80.08
2023-03-22T08:11:28.776Z,80.33
2023-03-22T08:15:28.503Z,80.70
2023-03-22T08:19:28.497Z,80.58
2023-03-22T08:23:40.937Z,81.04
2023-03-22T08:27:28.662Z,81.22
2023-03-22T08:31:28.775Z,82.50
2023-03-22T08:35:28.893Z,81.61
2023-03-22T08:39:28.458Z,81.64
2023-03-22T08:43:28.726Z,81.04
2023-03-22T08:47:28.798Z,81.25
2023-03-22T08:51:30.186Z,81.18
2023-03-22T08:55:28.674Z,81.20
2023-03-22T09:03:28.649Z,81.09
2023-03-22T09:07:28.742Z,81.25
2023-03-22T09:11:28.720Z,81.05
2023-03-22T09:15:28.605Z,80.93
2023-03-22T09:19:28.963Z,80.94
2023-03-22T09:23:29.436Z,82.05
2023-03-22T09:27:29.858Z,82.66
2023-03-22T09:39:28.996Z,82.17
2023-03-22T09:43:33.206Z,83.18
2023-03-22T09:47:44.308Z,82.36
2023-03-22T09:51:38.612Z,82.79
2023-03-22T09:55:36.002Z,82.18
2023-03-22T09:59:14.282Z,81.76
2023-03-22T10:03:20.296Z,82.00
2023-03-22T10:07:16.871Z,81.81
2023-03-22T10:11:16.666Z,81.80
2023-03-22T10:15:13.024Z,81.21
2023-03-22T10:19:16.422Z,81.34
2023-03-22T10:23:12.330Z,82.71
2023-03-22T10:27:14.683Z,81.75
2023-03-22T10:31:12.863Z,80.33
2023-03-22T10:35:12.721Z,79.94
2023-03-22T10:39:15.750Z,80.41
2023-03-22T10:43:16.479Z,79.93
2023-03-22T10:47:10.421Z,78.76
2023-03-22T10:51:17.111Z,78.35
2023-03-22T10:55:10.631Z,78.90
2023-03-22T10:59:07.763Z,80.21
2023-03-22T11:03:07.024Z,79.42
2023-03-22T11:07:15.513Z,78.56
2023-03-22T11:11:14.880Z,78.20
2023-03-22T11:15:19.542Z,78.17
2023-03-22T11:19:14.565Z,77.39
2023-03-22T11:23:12.236Z,77.79
2023-03-22T11:27:18.665Z,75.52
2023-03-22T11:31:09.533Z,75.60
2023-03-22T11:35:12.211Z,75.24
2023-03-22T11:39:07.307Z,75.02
2023-03-22T11:43:15.844Z,75.59
2023-03-22T11:47:07.593Z,73.56
2023-03-22T11:51:09.999Z,73.15
2023-03-22T11:59:12.200Z,73.44
2023-03-22T12:03:15.313Z,72.42
2023-03-22T12:07:14.774Z,71.71
2023-03-22T12:11:12.042Z,68.73
2023-03-22T12:15:14.536Z,69.74
2023-03-22T12:19:21.555Z,65.63
2023-03-22T12:23:13.227Z,64.47
2023-03-22T12:27:15.208Z,63.28
2023-03-22T12:31:14.755Z,62.61
2023-03-22T12:35:17.753Z,63.77
2023-03-22T12:39:12.828Z,61.87
2023-03-22T12:43:14.389Z,64.09
2023-03-22T12:47:15.867Z,64.47
2023-03-22T12:51:10.088Z,63.80
2023-03-22T12:55:17.046Z,63.13
2023-03-22T12:59:13.008Z,63.84
2023-03-22T13:03:22.058Z,62.84
2023-03-22T13:07:13.239Z,62.91
2023-03-22T13:11:21.724Z,63.40
2023-03-22T13:15:34.863Z,62.39
2023-03-22T13:19:25.721Z,62.38
2023-03-22T13:23:26.107Z,61.74
2023-03-22T13:27:10.653Z,61.44
2023-03-22T13:31:27.344Z,58.78
2023-03-22T13:39:11.362Z,61.24
2023-03-22T13:43:09.434Z,61.22
2023-03-22T13:47:18.388Z,61.57
2023-03-22T13:51:11.168Z,62.68
2023-03-22T13:55:27.158Z,61.96
2023-03-22T13:59:10.668Z,62.76
2023-03-22T14:03:16.440Z,61.48
2023-03-22T14:07:19.145Z,62.04
2023-03-22T14:11:19.175Z,61.39
2023-03-22T14:15:13.487Z,61.65
2023-03-22T14:19:15.326Z,62.08
2023-03-22T14:55:10.947Z,60.26
2023-03-22T14:59:12.450Z,60.69
2023-03-22T15:03:13.705Z,61.12
2023-03-22T15:07:09.047Z,60.59
2023-03-22T15:11:10.012Z,61.16
2023-03-22T15:15:08.535Z,61.40
2023-03-22T15:19:12.143Z,62.21
2023-03-22T15:23:14.691Z,60.58
2023-03-22T15:27:11.648Z,62.22
2023-03-22T15:31:20.131Z,61.98
2023-03-22T15:35:13.425Z,61.96
2023-03-22T15:39:18.692Z,61.79
2023-03-22T15:43:16.193Z,61.77
2023-03-22T15:47:14.644Z,61.33
2023-03-22T15:51:10.868Z,60.90
2023-03-22T15:55:13.605Z,61.01
2023-03-22T15:59:21.465Z,60.63
2023-03-22T16:03:13.668Z,60.54
2023-03-22T16:07:09.834Z,61.14
2023-03-22T16:11:11.896Z,60.64
2023-03-22T16:15:13.702Z,60.79
2023-03-22T16:19:08.236Z,61.06
2023-03-22T16:23:12.058Z,61.26
2023-03-22T16:27:11.415Z,61.73
2023-03-22T16:31:12.858Z,61.32
2023-03-22T16:35:15.163Z,60.96
2023-03-22T16:39:08.008Z,60.67
2023-03-22T16:43:08.135Z,61.18
2023-03-22T16:55:15.337Z,60.47
2023-03-22T16:59:07.914Z,60.56
2023-03-22T17:07:12.808Z,60.73
2023-03-22T17:11:18.562Z,60.99
2023-03-22T17:15:24.322Z,60.75
2023-03-22T17:19:07.961Z,60.77
2023-03-22T17:27:10.531Z,61.48
2023-03-22T17:31:10.267Z,61.96
2023-03-22T17:35:12.011Z,62.29
2023-03-22T17:39:23.045Z,62.70
2023-03-22T17:43:08.085Z,63.05
2023-03-22T17:51:10.714Z,64.01
2023-03-22T17:55:20.946Z,64.42
2023-03-22T17:59:08.157Z,65.13
2023-03-22T18:03:08.138Z,65.91
2023-03-22T18:07:08.034Z,65.94
2023-03-22T18:11:10.359Z,65.94
2023-03-22T18:15:11.599Z,66.18
2023-03-22T18:19:08.071Z,66.47
2023-03-22T18:23:08.342Z,66.79
2023-03-22T18:27:11.414Z,67.17
2023-03-22T18:39:47.493Z,67.51
2023-03-22T18:43:08.129Z,67.36
2023-03-22T18:47:10.522Z,68.08
2023-03-22T18:51:11.619Z,67.83
2023-03-22T18:55:25.126Z,68.81
2023-03-22T18:59:08.250Z,68.23
2023-03-22T19:03:08.242Z,68.18
2023-03-22T19:07:17.552Z,68.24
2023-03-22T19:11:08.856Z,68.67
2023-03-22T19:15:31.845Z,68.41
2023-03-22T19:19:08.408Z,68.73
2023-03-22T19:23:08.262Z,69.12
2023-03-22T19:27:17.694Z,68.79
2023-03-22T19:31:08.254Z,69.02
2023-03-22T19:35:08.891Z,69.29
2023-03-22T19:39:11.567Z,69.33
2023-03-22T19:43:11.050Z,69.38
2023-03-22T19:51:09.598Z,69.26
2023-03-22T19:55:09.329Z,69.40
2023-03-22T19:59:11.892Z,69.29
2023-03-22T20:03:08.815Z,69.57
2023-03-22T20:07:08.553Z,69.46
2023-03-22T20:10:12.842Z,69.46
2023-03-22T20:11:09.524Z,69.11
2023-03-22T20:15:10.726Z,69.32
2023-03-22T20:19:11.084Z,68.96
2023-03-22T20:23:10.752Z,68.59
2023-03-22T20:27:10.136Z,68.55
2023-03-22T20:35:12.098Z,67.92
2023-03-22T20:39:09.218Z,67.81
2023-03-22T20:43:11.641Z,68.08
2023-03-22T20:47:08.575Z,67.89
2023-03-22T20:51:08.737Z,67.80
2023-03-22T20:55:09.279Z,67.54
2023-03-22T20:59:09.022Z,67.83
2023-03-22T21:03:10.238Z,67.92
2023-03-22T21:07:08.908Z,67.70
2023-03-22T21:11:11.072Z,68.09
2023-03-22T21:15:11.694Z,68.13
2023-03-22T21:19:10.192Z,68.03
2023-03-22T21:23:08.677Z,68.13
2023-03-22T21:27:08.603Z,68.12
2023-03-22T21:35:09.742Z,68.26
2023-03-22T21:39:08.733Z,68.36
2023-03-22T21:43:09.265Z,68.39
2023-03-22T21:47:08.702Z,68.54
2023-03-22T21:51:09.784Z,68.58
2023-03-22T21:55:09.236Z,68.77
2023-03-22T22:03:09.896Z,68.93
2023-03-22T22:07:08.848Z,68.73
2023-03-22T22:11:09.850Z,68.80
2023-03-22T22:15:09.259Z,68.92
2023-03-22T22:19:08.842Z,68.76
2023-03-22T22:23:09.038Z,68.81
2023-03-22T22:27:08.969Z,68.70
2023-03-22T22:35:10.598Z,68.59
2023-03-22T22:39:12.048Z,68.64
2023-03-22T22:43:09.051Z,69.05
2023-03-22T22:47:08.834Z,70.14
2023-03-22T22:51:11.516Z,70.75
2023-03-22T22:55:11.410Z,71.27
2023-03-22T22:59:08.948Z,71.88
2023-03-22T23:03:08.881Z,73.14
2023-03-22T23:07:09.369Z,73.19
2023-03-22T23:11:09.742Z,73.32
2023-03-22T23:15:18.265Z,73.52
2023-03-22T23:19:08.975Z,73.72
2023-03-22T23:23:09.004Z,73.93
2023-03-22T23:27:08.925Z,74.18
2023-03-22T23:31:12.098Z,73.90
2023-03-22T23:35:10.040Z,74.42
2023-03-22T23:39:10.382Z,74.37
2023-03-22T23:43:09.138Z,74.72
2023-03-22T23:47:09.515Z,74.33
2023-03-22T23:51:10.357Z,74.43
2023-03-22T23:55:12.481Z,74.38
2023-03-22T23:59:09.063Z,74.39
